createdAt,value
2023-05-08T00:00:12.464Z,100555.66
2023-05-08T00:02:43.828Z,100566.84
2023-05-08T00:05:14.250Z,100574.75
2023-05-08T00:07:44.333Z,100575.13
2023-05-08T00:10:15.171Z,100580.91
2023-05-08T00:12:45.503Z,100587.56
2023-05-08T00:15:15.999Z,100586.28
2023-05-08T00:17:46.168Z,100590.56
2023-05-08T00:20:16.584Z,100599.28
2023-05-08T00:22:46.632Z,100596.81
2023-05-08T00:25:16.705Z,100608.00
2023-05-08T00:27:46.829Z,100608.63
2023-05-08T00:30:17.275Z,100615.22
2023-05-08T00:32:48.477Z,100629.16
2023-05-08T00:35:19.104Z,100635.53
2023-05-08T00:37:49.215Z,100645.00
2023-05-08T00:40:19.659Z,100647.09
2023-05-08T00:42:49.772Z,100647.09
2023-05-08T00:45:20.119Z,100648.78
2023-05-08T00:47:50.258Z,100660.19
2023-05-08T00:50:21.202Z,100659.16
2023-05-08T00:52:51.963Z,100668.72
2023-05-08T00:55:22.612Z,100664.13
2023-05-08T00:57:54.078Z,100668.25
2023-05-08T01:00:24.587Z,100664.50
2023-05-08T01:02:54.889Z,100667.81
2023-05-08T01:05:25.349Z,100669.22
2023-05-08T01:07:56.056Z,100671.94
2023-05-08T01:10:27.681Z,100679.63
2023-05-08T01:13:03.885Z,100679.63
2023-05-08T01:15:41.829Z,100681.28
2023-05-08T01:18:11.809Z,100688.13
2023-05-08T01:20:55.180Z,100689.78
2023-05-08T01:23:50.334Z,100686.84
2023-05-08T01:26:36.535Z,100702.66
2023-05-08T01:29:25.515Z,100705.97
2023-05-08T01:32:07.648Z,100710.94
2023-05-08T01:34:39.765Z,100714.25
2023-05-08T01:37:13.083Z,100716.13
2023-05-08T01:39:49.227Z,100718.41
2023-05-08T01:42:35.740Z,100719.22
2023-05-08T01:45:09.444Z,100716.25
2023-05-08T01:47:40.256Z,100736.66
2023-05-08T01:50:15.838Z,100741.63
2023-05-08T01:52:52.195Z,100736.81
2023-05-08T01:55:26.213Z,100744.94
2023-05-08T01:57:59.709Z,100751.56
2023-05-08T02:00:30.033Z,100751.56
2023-05-08T02:03:01.940Z,100753.84
2023-05-08T02:05:32.925Z,100741.94
2023-05-08T02:08:04.324Z,100749.84
2023-05-08T02:10:35.063Z,100746.88
2023-05-08T02:13:06.087Z,100757.28
2023-05-08T02:15:38.048Z,100748.09
2023-05-08T02:18:10.389Z,100754.09
2023-05-08T02:20:41.285Z,100753.06
2023-05-08T02:23:11.795Z,100750.91
2023-05-08T02:25:42.077Z,100756.94
2023-05-08T02:28:12.775Z,100761.31
2023-05-08T02:30:43.986Z,100754.59
2023-05-08T02:33:19.372Z,100762.56
2023-05-08T02:36:00.748Z,100756.88
2023-05-08T02:38:32.056Z,100751.25
2023-05-08T02:41:04.892Z,100738.75
2023-05-08T02:43:35.167Z,100746.63
2023-05-08T02:46:16.897Z,100742.88
2023-05-08T02:49:01.088Z,100745.34
2023-05-08T02:51:41.340Z,100744.06
2023-05-08T02:54:28.423Z,100748.41
2023-05-08T02:57:05.358Z,100747.13
2023-05-08T02:59:41.105Z,100745.28
2023-05-08T03:02:27.455Z,100739.38
2023-05-08T03:05:01.512Z,100739.72
2023-05-08T03:07:32.832Z,100740.34
2023-05-08T03:10:05.755Z,100733.63
2023-05-08T03:12:41.337Z,100714.38
2023-05-08T03:15:16.052Z,100712.25
2023-05-08T03:17:47.724Z,100705.75
2023-05-08T03:20:19.827Z,100712.38
2023-05-08T03:22:50.744Z,100700.72
2023-05-08T03:25:22.225Z,100699.63
2023-05-08T03:27:54.120Z,100688.53
2023-05-08T03:30:25.762Z,100690.19
2023-05-08T03:33:08.858Z,100681.00
2023-05-08T03:35:40.784Z,100682.66
2023-05-08T03:38:12.468Z,100694.34
2023-05-08T03:40:45.910Z,100691.38
2023-05-08T03:43:17.182Z,100691.38
2023-05-08T03:45:48.400Z,100688.66
2023-05-08T03:48:20.030Z,100696.59
2023-05-08T03:50:50.838Z,100706.38
2023-05-08T03:53:21.399Z,100713.47
2023-05-08T03:55:52.077Z,100708.88
2023-05-08T03:58:44.799Z,100710.50
2023-05-08T04:01:41.964Z,100713.47
2023-05-08T04:04:25.763Z,100708.88
2023-05-08T04:07:05.522Z,100704.25
2023-05-08T04:09:45.950Z,100698.00
2023-05-08T04:12:15.975Z,100681.72
2023-05-08T04:14:50.147Z,100672.50
2023-05-08T04:17:25.356Z,100668.72
2023-05-08T04:20:05.401Z,100661.63
2023-05-08T04:22:37.283Z,100663.28
2023-05-08T04:25:09.349Z,100666.59
2023-05-08T04:27:39.693Z,100659.88
2023-05-08T04:30:11.121Z,100655.84
2023-05-08T04:32:45.490Z,100647.28
2023-05-08T04:35:18.187Z,100645.16
2023-05-08T04:37:49.862Z,100644.69
2023-05-08T04:40:21.976Z,100637.13
2023-05-08T04:42:52.367Z,100634.97
2023-05-08T04:45:23.593Z,100633.69
2023-05-08T04:47:54.290Z,100628.03
2023-05-08T04:50:24.483Z,100613.97
2023-05-08T04:52:54.619Z,100604.75
2023-05-08T04:55:24.854Z,100590.13
2023-05-08T04:57:55.522Z,100582.53
2023-05-08T05:00:25.579Z,100582.53
2023-05-08T05:02:55.702Z,100584.19
2023-05-08T05:05:25.853Z,100573.34
2023-05-08T05:07:55.587Z,100557.03
2023-05-08T05:10:25.357Z,100554.91
2023-05-08T05:12:55.474Z,100545.69
2023-05-08T05:15:25.283Z,100538.97
2023-05-08T05:17:55.578Z,100541.41
2023-05-08T05:20:25.740Z,100534.94
2023-05-08T05:22:55.946Z,100527.38
2023-05-08T05:25:27.043Z,100517.06
2023-05-08T05:27:56.697Z,100507.88
2023-05-08T05:30:27.963Z,100491.31
2023-05-08T05:32:58.037Z,100490.00
2023-05-08T05:35:27.839Z,100479.75
2023-05-08T05:37:59.400Z,100478.44
2023-05-08T05:40:29.158Z,100471.69
2023-05-08T05:42:58.916Z,100467.88
2023-05-08T05:45:29.788Z,100463.03
2023-05-08T05:48:00.987Z,100455.44
2023-05-08T05:50:32.524Z,100446.88
2023-05-08T05:53:02.830Z,100457.25
2023-05-08T05:55:32.921Z,100446.09
2023-05-08T05:58:03.077Z,100443.75
2023-05-08T06:00:33.207Z,100447.84
2023-05-08T06:03:04.217Z,100427.50
2023-05-08T06:05:34.076Z,100424.28
2023-05-08T06:08:04.215Z,100420.03
2023-05-08T06:10:34.174Z,100422.25
2023-05-08T06:13:04.280Z,100426.94
2023-05-08T06:15:35.587Z,100431.88
2023-05-08T06:18:06.316Z,100434.09
2023-05-08T06:20:36.195Z,100436.31
2023-05-08T06:23:06.561Z,100443.75
2023-05-08T06:25:36.308Z,100447.88
2023-05-08T06:28:07.632Z,100460.69
2023-05-08T06:30:37.360Z,100438.47
2023-05-08T06:33:07.153Z,100443.41
2023-05-08T06:35:37.590Z,100438.56
2023-05-08T06:38:07.410Z,100437.00
2023-05-08T06:40:37.288Z,100421.00
2023-05-08T06:43:07.056Z,100437.63
2023-05-08T06:45:36.832Z,100440.41
2023-05-08T06:48:06.803Z,100447.03
2023-05-08T06:50:40.374Z,100438.91
2023-05-08T06:53:10.534Z,100438.41
2023-05-08T06:55:40.327Z,100440.66
2023-05-08T06:58:10.050Z,100421.66
2023-05-08T07:00:39.870Z,100417.59
2023-05-08T07:03:09.629Z,100418.75
2023-05-08T07:05:39.437Z,100418.28
2023-05-08T07:08:09.710Z,100418.59
2023-05-08T07:10:39.424Z,100395.47
2023-05-08T07:13:09.244Z,100402.31
2023-05-08T07:15:40.083Z,100396.13
2023-05-08T07:18:09.906Z,100389.34
2023-05-08T07:20:39.637Z,100380.66
2023-05-08T07:23:09.500Z,100371.16
2023-05-08T07:25:39.224Z,100369.81
2023-05-08T07:28:09.643Z,100355.97
2023-05-08T07:30:39.772Z,100355.19
2023-05-08T07:33:09.994Z,100357.91
2023-05-08T07:35:43.153Z,100362.84
2023-05-08T07:38:13.229Z,100359.03
2023-05-08T07:40:43.585Z,100357.69
2023-05-08T07:43:14.556Z,100343.84
2023-05-08T07:45:44.642Z,100345.22
2023-05-08T07:48:14.785Z,100337.88
2023-05-08T07:50:45.949Z,100331.34
2023-05-08T07:53:16.043Z,100335.69
2023-05-08T07:55:46.253Z,100338.19
2023-05-08T07:58:16.619Z,100342.81
2023-05-08T08:00:46.619Z,100357.00
2023-05-08T08:03:16.764Z,100365.16
2023-05-08T08:05:47.456Z,100358.63
2023-05-08T08:08:17.767Z,100354.00
2023-05-08T08:10:47.510Z,100371.16
2023-05-08T08:13:18.526Z,100372.25
2023-05-08T08:15:48.209Z,100392.72
2023-05-08T08:18:18.072Z,100392.13
2023-05-08T08:20:48.262Z,100369.53
2023-05-08T08:23:18.728Z,100354.81
2023-05-08T08:25:48.494Z,100360.25
2023-05-08T08:28:19.016Z,100373.34
2023-05-08T08:30:48.741Z,100391.31
2023-05-08T08:33:19.201Z,100401.38
2023-05-08T08:35:49.119Z,100406.03
2023-05-08T08:38:18.863Z,100396.19
2023-05-08T08:40:49.176Z,100391.81
2023-05-08T08:43:19.246Z,100380.13
2023-05-08T08:45:49.440Z,100386.38
2023-05-08T08:48:20.541Z,100396.69
2023-05-08T08:50:52.547Z,100410.31
2023-05-08T08:53:33.311Z,100417.66
2023-05-08T08:56:04.264Z,100407.03
2023-05-08T08:58:39.008Z,100398.31
2023-05-08T09:01:09.864Z,100389.28
2023-05-08T09:03:39.596Z,100391.19
2023-05-08T09:06:09.868Z,100442.38
2023-05-08T09:08:39.933Z,100505.03
2023-05-08T09:11:10.268Z,100550.16
2023-05-08T09:13:39.912Z,100555.44
2023-05-08T09:16:09.803Z,100555.31
2023-05-08T09:18:39.523Z,100531.00
2023-05-08T09:21:09.341Z,100529.03
2023-05-08T09:23:55.661Z,100545.84
2023-05-08T09:26:28.931Z,100546.91
2023-05-08T09:29:27.929Z,100560.44
2023-05-08T09:31:57.818Z,100555.06
2023-05-08T09:34:29.251Z,100555.16
2023-05-08T09:37:07.714Z,100548.41
2023-05-08T09:39:37.461Z,100556.66
2023-05-08T09:42:07.419Z,100555.88
2023-05-08T09:44:47.197Z,100555.88
2023-05-08T09:47:18.364Z,100567.03
2023-05-08T09:50:06.457Z,100571.81
2023-05-08T09:52:37.842Z,100554.00
2023-05-08T09:55:09.489Z,100540.81
2023-05-08T09:57:40.494Z,100523.00
2023-05-08T10:00:12.277Z,100513.44
2023-05-08T10:02:43.198Z,100509.00
2023-05-08T10:05:33.740Z,100496.97
2023-05-08T10:08:21.712Z,100495.25
2023-05-08T10:10:51.865Z,100491.38
2023-05-08T10:13:22.480Z,100457.84
2023-05-08T10:15:55.984Z,100488.59
2023-05-08T10:18:26.771Z,100487.41
2023-05-08T10:20:57.413Z,100480.13
2023-05-08T10:23:27.870Z,100476.53
2023-05-08T10:26:01.382Z,100471.09
2023-05-08T10:28:58.281Z,100471.56
2023-05-08T10:31:32.826Z,100479.53
2023-05-08T10:34:03.647Z,100488.97
2023-05-08T10:36:37.139Z,100490.53
2023-05-08T10:39:07.926Z,100482.38
2023-05-08T10:41:38.130Z,100491.84
2023-05-08T10:44:08.578Z,100500.25
2023-05-08T10:46:54.519Z,100493.31
2023-05-08T10:49:32.156Z,100497.94
2023-05-08T10:52:11.198Z,100501.66
2023-05-08T10:55:07.304Z,100513.13
2023-05-08T10:57:37.676Z,100507.69
2023-05-08T11:00:08.136Z,100519.09
2023-05-08T11:02:39.683Z,100520.78
2023-05-08T11:05:19.365Z,100527.25
2023-05-08T11:07:56.926Z,100532.69
2023-05-08T11:10:33.680Z,100541.94
2023-05-08T11:13:03.805Z,100545.47
2023-05-08T11:15:40.709Z,100554.44
2023-05-08T11:18:12.388Z,100554.44
2023-05-08T11:20:43.192Z,100550.09
2023-05-08T11:23:29.516Z,100545.16
2023-05-08T11:26:03.757Z,100545.16
2023-05-08T11:28:34.702Z,100553.31
2023-05-08T11:31:05.719Z,100564.41
2023-05-08T11:33:38.882Z,100586.41
2023-05-08T11:36:26.454Z,100579.31
2023-05-08T11:39:10.366Z,100582.50
2023-05-08T11:41:43.016Z,100591.50
2023-05-08T11:44:21.282Z,100594.47
2023-05-08T11:46:54.998Z,100596.91
2023-05-08T11:49:29.147Z,100599.41
2023-05-08T11:52:00.421Z,100606.97
2023-05-08T11:54:32.010Z,100615.72
2023-05-08T11:57:03.000Z,100604.50
2023-05-08T11:59:38.113Z,100619.53
2023-05-08T12:02:09.588Z,100624.94
2023-05-08T12:04:47.036Z,100624.09
2023-05-08T12:07:17.555Z,100617.84
2023-05-08T12:09:47.731Z,100624.59
2023-05-08T12:12:17.561Z,100617.19
2023-05-08T12:14:50.821Z,100616.34
2023-05-08T12:17:20.929Z,100606.53
2023-05-08T12:19:55.502Z,100604.63
2023-05-08T12:22:25.346Z,100604.31
2023-05-08T12:24:55.600Z,100606.94
2023-05-08T12:27:26.230Z,100598.78
2023-05-08T12:29:56.037Z,100606.22
2023-05-08T12:32:27.725Z,100606.16
2023-05-08T12:34:58.932Z,100603.81
2023-05-08T12:37:28.995Z,100611.69
2023-05-08T12:39:58.767Z,100618.91
2023-05-08T12:42:44.337Z,100626.47
2023-05-08T12:45:24.548Z,100628.63
2023-05-08T12:47:55.023Z,100621.03
2023-05-08T12:50:26.972Z,100619.28
2023-05-08T12:53:02.832Z,100624.47
2023-05-08T12:55:33.338Z,100630.75
2023-05-08T12:58:04.842Z,100630.63
2023-05-08T13:00:41.922Z,100628.72
2023-05-08T13:03:13.994Z,100625.06
2023-05-08T13:05:47.618Z,100629.41
2023-05-08T13:08:17.657Z,100627.31
2023-05-08T13:10:51.740Z,100633.81
2023-05-08T13:13:22.487Z,100638.28
2023-05-08T13:15:52.778Z,100651.13
2023-05-08T13:18:23.410Z,100651.34
2023-05-08T13:20:53.804Z,100659.84
2023-05-08T13:23:24.238Z,100671.75
2023-05-08T13:25:54.845Z,100686.06
2023-05-08T13:28:24.899Z,100707.19
2023-05-08T13:30:55.037Z,100714.03
2023-05-08T13:33:25.564Z,100720.19
2023-05-08T13:35:56.541Z,100727.25
2023-05-08T13:38:26.791Z,100725.16
2023-05-08T13:40:56.777Z,100725.16
2023-05-08T13:43:26.839Z,100730.19
2023-05-08T13:45:57.020Z,100730.56
2023-05-08T13:48:27.336Z,100738.72
2023-05-08T13:50:57.314Z,100716.41
2023-05-08T13:53:27.395Z,100750.78
2023-05-08T13:55:57.494Z,100744.19
2023-05-08T13:58:27.863Z,100760.06
2023-05-08T14:00:57.997Z,100753.28
2023-05-08T14:03:28.072Z,100763.78
2023-05-08T14:05:58.075Z,100756.53
2023-05-08T14:08:28.335Z,100761.16
2023-05-08T14:10:58.395Z,100765.38
2023-05-08T14:13:28.399Z,100763.50
2023-05-08T14:15:58.484Z,100774.03
2023-05-08T14:18:28.730Z,100771.41
2023-05-08T14:20:59.063Z,100773.75
2023-05-08T14:23:29.509Z,100772.59
2023-05-08T14:25:59.566Z,100765.59
2023-05-08T14:28:29.632Z,100767.16
2023-05-08T14:30:59.737Z,100761.81
2023-05-08T14:33:29.933Z,100760.34
2023-05-08T14:36:00.147Z,100760.41
2023-05-08T14:38:30.301Z,100772.91
2023-05-08T14:41:03.106Z,100755.91
2023-05-08T14:43:34.705Z,100758.00
2023-05-08T14:46:05.007Z,100755.91
2023-05-08T14:48:56.969Z,100754.88
2023-05-08T14:51:28.094Z,100751.34
2023-05-08T14:54:16.393Z,100739.69
2023-05-08T14:56:47.652Z,100739.91
2023-05-08T14:59:18.081Z,100737.44
2023-05-08T15:01:48.737Z,100745.75
2023-05-08T15:04:18.866Z,100741.41
2023-05-08T15:06:49.190Z,100738.88
2023-05-08T15:09:19.343Z,100747.84
2023-05-08T15:11:49.447Z,100741.81
2023-05-08T15:14:19.654Z,100736.59
2023-05-08T15:16:50.041Z,100733.09
2023-05-08T15:19:20.490Z,100736.00
2023-05-08T15:21:50.684Z,100730.19
2023-05-08T15:24:20.719Z,100736.00
2023-05-08T15:26:50.863Z,100727.25
2023-05-08T15:29:20.926Z,100733.53
2023-05-08T15:31:51.209Z,100729.38
2023-05-08T15:34:21.705Z,100730.19
2023-05-08T15:36:52.321Z,100741.00
2023-05-08T15:39:22.502Z,100748.47
2023-05-08T15:41:52.602Z,100747.22
2023-05-08T15:44:23.614Z,100745.75
2023-05-08T15:46:54.785Z,100740.38
2023-05-08T15:49:45.218Z,100739.34
2023-05-08T15:52:19.951Z,100743.06
2023-05-08T15:54:50.484Z,100741.41
2023-05-08T15:57:20.536Z,100738.72
2023-05-08T15:59:50.867Z,100745.13
2023-05-08T16:02:21.026Z,100739.34
2023-05-08T16:04:51.415Z,100741.22
2023-05-08T16:07:21.447Z,100737.25
2023-05-08T16:09:51.724Z,100743.91
2023-05-08T16:12:21.740Z,100740.16
2023-05-08T16:14:51.821Z,100739.34
2023-05-08T16:17:21.857Z,100737.25
2023-05-08T16:19:52.027Z,100736.44
2023-05-08T16:22:22.156Z,100729.81
2023-05-08T16:24:54.471Z,100735.59
2023-05-08T16:27:24.752Z,100724.81
2023-05-08T16:29:54.844Z,100713.59
2023-05-08T16:32:25.029Z,100713.00
2023-05-08T16:34:55.302Z,100713.00
2023-05-08T16:37:25.410Z,100708.63
2023-05-08T16:39:55.377Z,100711.97
2023-05-08T16:42:25.383Z,100714.44
2023-05-08T16:44:55.433Z,100702.41
2023-05-08T16:47:26.030Z,100699.72
2023-05-08T16:49:56.756Z,100701.16
2023-05-08T16:52:27.341Z,100694.94
2023-05-08T16:54:57.330Z,100687.44
2023-05-08T16:57:28.777Z,100689.13
2023-05-08T16:59:59.070Z,100676.66
2023-05-08T17:02:29.315Z,100668.97
2023-05-08T17:04:59.690Z,100671.25
2023-05-08T17:07:29.737Z,100667.31
2023-05-08T17:09:59.841Z,100662.56
2023-05-08T17:12:33.156Z,100653.41
2023-05-08T17:15:03.570Z,100649.91
2023-05-08T17:17:33.860Z,100648.22
2023-05-08T17:20:04.259Z,100642.81
2023-05-08T17:22:34.248Z,100644.28
2023-05-08T17:25:04.369Z,100627.69
2023-05-08T17:27:37.226Z,100629.34
2023-05-08T17:30:08.191Z,100622.28
2023-05-08T17:32:38.527Z,100623.75
2023-05-08T17:35:08.784Z,100622.28
2023-05-08T17:37:39.086Z,100627.88
2023-05-08T17:40:09.506Z,100627.06
2023-05-08T17:42:40.150Z,100616.47
2023-05-08T17:45:10.431Z,100618.13
2023-05-08T17:47:41.618Z,100611.09
2023-05-08T17:50:12.780Z,100608.63
2023-05-08T17:52:42.952Z,100607.16
2023-05-08T17:55:13.021Z,100614.00
2023-05-08T17:57:43.118Z,100622.09
2023-05-08T18:00:13.721Z,100622.31
2023-05-08T18:02:43.905Z,100616.91
2023-05-08T18:05:13.971Z,100621.88
2023-05-08T18:07:44.128Z,100613.59
2023-05-08T18:10:14.339Z,100608.81
2023-05-08T18:13:08.721Z,100609.84
2023-05-08T18:15:41.572Z,100608.81
2023-05-08T18:18:11.905Z,100599.06
2023-05-08T18:20:41.940Z,100601.97
2023-05-08T18:23:11.999Z,100591.38
2023-05-08T18:25:42.119Z,100595.31
2023-05-08T18:28:14.893Z,100594.50
2023-05-08T18:30:45.285Z,100603.41
2023-05-08T18:33:15.792Z,100595.75
2023-05-08T18:36:01.362Z,100593.47
2023-05-08T18:38:47.490Z,100584.34
2023-05-08T18:41:40.581Z,100585.38
2023-05-08T18:44:11.566Z,100582.06
2023-05-08T18:47:03.597Z,100577.06
2023-05-08T18:49:59.206Z,100577.06
2023-05-08T18:52:29.811Z,100573.75
2023-05-08T18:54:59.947Z,100561.31
2023-05-08T18:57:29.991Z,100560.09
2023-05-08T19:00:12.841Z,100565.25
2023-05-08T19:02:43.045Z,100557.81
2023-05-08T19:05:13.182Z,100559.25
2023-05-08T19:07:43.837Z,100551.38
2023-05-08T19:10:14.387Z,100548.47
2023-05-08T19:12:44.980Z,100549.72
2023-05-08T19:15:15.563Z,100552.22
2023-05-08T19:17:46.539Z,100548.47
2023-05-08T19:20:16.915Z,100547.22
2023-05-08T19:22:48.517Z,100545.53
2023-05-08T19:25:19.037Z,100540.13
2023-05-08T19:27:49.233Z,100533.72
2023-05-08T19:30:19.286Z,100533.53
2023-05-08T19:32:49.811Z,100532.69
2023-05-08T19:35:19.915Z,100521.50
2023-05-08T19:37:49.862Z,100530.81
2023-05-08T19:40:20.247Z,100520.25
2023-05-08T19:42:50.602Z,100529.38
2023-05-08T19:45:23.675Z,100523.16
2023-05-08T19:47:54.209Z,100524.38
2023-05-08T19:50:25.105Z,100521.06
2023-05-08T19:52:55.127Z,100522.50
2023-05-08T19:55:25.194Z,100527.09
2023-05-08T19:57:55.299Z,100509.88
2023-05-08T20:00:25.310Z,100515.69
2023-05-08T20:02:55.498Z,100510.28
2023-05-08T20:05:26.129Z,100513.19
2023-05-08T20:07:56.125Z,100520.25
2023-05-08T20:10:26.214Z,100520.03
2023-05-08T20:12:59.234Z,100514.03
2023-05-08T20:15:45.365Z,100526.88
2023-05-08T20:18:15.831Z,100528.13
2023-05-08T20:20:47.421Z,100543.25
2023-05-08T20:23:52.552Z,100548.03
2023-05-08T20:26:43.631Z,100557.13
2023-05-08T20:29:24.569Z,100569.59
2023-05-08T20:31:58.008Z,100571.22
2023-05-08T20:34:49.134Z,100574.97
2023-05-08T20:37:54.402Z,100580.38
2023-05-08T20:40:39.834Z,100584.50
2023-05-08T20:43:13.698Z,100584.91
2023-05-08T20:45:52.905Z,100593.19
2023-05-08T20:49:03.412Z,100588.22
2023-05-08T20:51:34.027Z,100591.53
2023-05-08T20:54:04.089Z,100598.16
2023-05-08T20:56:37.268Z,100597.94
2023-05-08T20:59:37.074Z,100595.44
2023-05-08T21:02:07.631Z,100594.81
2023-05-08T21:04:44.174Z,100604.56
2023-05-08T21:08:18.303Z,100602.53
2023-05-08T21:11:03.988Z,100605.81
2023-05-08T21:13:51.693Z,100605.59
2023-05-08T21:16:26.761Z,100579.25
2023-05-08T21:19:21.480Z,100616.78
2023-05-08T21:21:52.318Z,100616.78
2023-05-08T21:24:40.604Z,100615.13
2023-05-08T21:27:18.000Z,100614.50
2023-05-08T21:29:48.296Z,100606.00
2023-05-08T21:32:18.321Z,100613.47
2023-05-08T21:34:48.415Z,100612.03
2023-05-08T21:37:18.684Z,100615.53
2023-05-08T21:39:48.692Z,100615.94
2023-05-08T21:42:18.724Z,100628.38
2023-05-08T21:44:48.726Z,100630.44
2023-05-08T21:47:18.691Z,100639.56
2023-05-08T21:49:48.661Z,100639.97
2023-05-08T21:52:23.434Z,100642.66
2023-05-08T21:55:09.574Z,100644.31
2023-05-08T21:57:48.789Z,100657.16
2023-05-08T22:00:19.062Z,100654.00
2023-05-08T22:02:52.002Z,100659.00
2023-05-08T22:05:22.488Z,100658.56
2023-05-08T22:08:30.853Z,100657.94
2023-05-08T22:11:01.801Z,100656.72
2023-05-08T22:13:31.959Z,100665.59
2023-05-08T22:16:02.086Z,100664.78
2023-05-08T22:18:32.304Z,100662.06
2023-05-08T22:21:02.452Z,100659.38
2023-05-08T22:23:32.520Z,100664.31
2023-05-08T22:26:02.672Z,100655.19
2023-05-08T22:28:32.736Z,100660.34
2023-05-08T22:31:13.803Z,100660.16
2023-05-08T22:33:43.829Z,100665.53
2023-05-08T22:36:13.946Z,100677.31
2023-05-08T22:39:02.806Z,100670.47
2023-05-08T22:42:10.864Z,100677.94
2023-05-08T22:44:47.409Z,100683.94
2023-05-08T22:47:17.542Z,100679.16
2023-05-08T22:50:46.150Z,100674.44
2023-05-08T22:53:16.322Z,100680.41
2023-05-08T22:55:46.537Z,100686.84
2023-05-08T22:58:17.029Z,100679.56
2023-05-08T23:00:56.365Z,100670.84
2023-05-08T23:03:50.825Z,100678.88
2023-05-08T23:06:25.636Z,100674.63
2023-05-08T23:08:56.112Z,100672.38
2023-05-08T23:11:27.111Z,100690.50
2023-05-08T23:13:57.432Z,100696.56
2023-05-08T23:16:27.994Z,100709.84
2023-05-08T23:18:58.068Z,100703.63
2023-05-08T23:21:29.124Z,100713.16
2023-05-08T23:23:59.467Z,100706.56
2023-05-08T23:26:30.057Z,100701.56
2023-05-08T23:29:00.042Z,100706.53
2023-05-08T23:31:45.870Z,100705.91
2023-05-08T23:34:25.330Z,100708.75
2023-05-08T23:36:55.438Z,100705.25
2023-05-08T23:39:43.359Z,100715.16
2023-05-08T23:42:22.750Z,100714.72
2023-05-08T23:45:36.584Z,100717.00
2023-05-08T23:48:15.717Z,100716.81
2023-05-08T23:51:14.536Z,100720.31
2023-05-08T23:53:44.759Z,100720.91
2023-05-08T23:56:15.074Z,100716.28
2023-05-08T23:59:23.741Z,100723.72
